sensor_id;sensor_type;location;lat;lon;timestamp;pressure;altitude;pressure_sealevel;temperature;humidity
52947;BME280;45776;40.400;17.260;2023-02-04T00:01:20;107696.44;;;20.34;72.87
52947;BME280;45776;40.400;17.260;2023-02-04T00:03:45;108022.34;;;20.92;73.29
52947;BME280;45776;40.400;17.260;2023-02-04T00:06:10;108005.00;;;20.94;71.50
52947;BME280;45776;40.400;17.260;2023-02-04T00:08:36;108038.09;;;21.08;69.40
52947;BME280;45776;40.400;17.260;2023-02-04T00:11:02;107865.31;;;20.78;69.23
52947;BME280;45776;40.400;17.260;2023-02-04T00:13:28;106831.88;;;18.78;73.93
52947;BME280;45776;40.400;17.260;2023-02-04T00:15:53;106984.13;;;18.94;77.76
52947;BME280;45776;40.400;17.260;2023-02-04T00:18:18;107534.16;;;19.92;76.55
52947;BME280;45776;40.400;17.260;2023-02-04T00:20:44;108024.53;;;20.96;70.76
52947;BME280;45776;40.400;17.260;2023-02-04T00:23:09;108066.69;;;21.12;68.43
52947;BME280;45776;40.400;17.260;2023-02-04T00:25:35;108068.44;;;21.20;66.24
52947;BME280;45776;40.400;17.260;2023-02-04T00:28:00;108102.75;;;21.29;65.97
52947;BME280;45776;40.400;17.260;2023-02-04T00:30:26;108129.97;;;21.37;64.40
52947;BME280;45776;40.400;17.260;2023-02-04T00:32:51;107286.19;;;19.79;65.19
52947;BME280;45776;40.400;17.260;2023-02-04T00:35:19;106891.84;;;18.82;74.37
52947;BME280;45776;40.400;17.260;2023-02-04T00:37:45;107175.56;;;19.33;71.71
52947;BME280;45776;40.400;17.260;2023-02-04T00:40:11;107692.56;;;20.30;71.17
52947;BME280;45776;40.400;17.260;2023-02-04T00:42:36;107922.88;;;20.82;68.41
52947;BME280;45776;40.400;17.260;2023-02-04T00:45:02;107715.38;;;20.47;68.27
52947;BME280;45776;40.400;17.260;2023-02-04T00:47:27;107144.94;;;19.34;71.23
52947;BME280;45776;40.400;17.260;2023-02-04T00:49:53;107125.78;;;19.17;76.83
52947;BME280;45776;40.400;17.260;2023-02-04T00:52:18;107111.06;;;19.11;77.23
52947;BME280;45776;40.400;17.260;2023-02-04T00:54:44;107376.75;;;19.54;79.36
52947;BME280;45776;40.400;17.260;2023-02-04T00:57:09;106877.19;;;18.67;77.05
52947;BME280;45776;40.400;17.260;2023-02-04T00:59:35;107059.09;;;18.90;83.03
52947;BME280;45776;40.400;17.260;2023-02-04T01:02:00;107422.38;;;19.55;82.32
52947;BME280;45776;40.400;17.260;2023-02-04T01:04:26;107628.03;;;20.00;78.73
52947;BME280;45776;40.400;17.260;2023-02-04T01:06:52;107859.88;;;20.43;77.77
52947;BME280;45776;40.400;17.260;2023-02-04T01:09:18;107989.69;;;20.74;75.07
52947;BME280;45776;40.400;17.260;2023-02-04T01:11:43;108061.91;;;20.92;74.00
52947;BME280;45776;40.400;17.260;2023-02-04T01:14:09;107870.31;;;20.59;73.15
52947;BME280;45776;40.400;17.260;2023-02-04T01:16:34;108001.19;;;20.83;73.08
52947;BME280;45776;40.400;17.260;2023-02-04T01:18:59;108097.69;;;21.06;71.85
52947;BME280;45776;40.400;17.260;2023-02-04T01:21:25;108026.88;;;20.93;71.69
52947;BME280;45776;40.400;17.260;2023-02-04T01:23:51;107950.63;;;20.78;71.70
52947;BME280;45776;40.400;17.260;2023-02-04T01:26:20;107798.81;;;20.47;73.16
52947;BME280;45776;40.400;17.260;2023-02-04T01:28:45;107900.56;;;20.62;75.02
52947;BME280;45776;40.400;17.260;2023-02-04T01:31:11;108052.91;;;20.90;74.32
52947;BME280;45776;40.400;17.260;2023-02-04T01:33:37;108105.91;;;21.09;71.42
52947;BME280;45776;40.400;17.260;2023-02-04T01:36:03;107388.38;;;19.74;74.65
52947;BME280;45776;40.400;17.260;2023-02-04T01:38:28;106868.38;;;18.75;75.35
52947;BME280;45776;40.400;17.260;2023-02-04T01:40:54;107127.31;;;19.15;77.68
52947;BME280;45776;40.400;17.260;2023-02-04T01:43:20;107036.41;;;19.00;77.43
52947;BME280;45776;40.400;17.260;2023-02-04T01:45:47;107094.06;;;19.07;79.32
52947;BME280;45776;40.400;17.260;2023-02-04T01:48:13;107429.84;;;19.68;77.91
52947;BME280;45776;40.400;17.260;2023-02-04T01:50:49;107566.38;;;19.98;74.60
52947;BME280;45776;40.400;17.260;2023-02-04T01:53:19;107594.44;;;20.07;73.78
52947;BME280;45776;40.400;17.260;2023-02-04T01:55:46;107312.50;;;19.52;76.10
52947;BME280;45776;40.400;17.260;2023-02-04T01:58:12;107182.50;;;19.24;79.23
52947;BME280;45776;40.400;17.260;2023-02-04T02:00:38;107352.44;;;19.48;81.81
52947;BME280;45776;40.400;17.260;2023-02-04T02:03:04;107267.63;;;19.33;82.39
52947;BME280;45776;40.400;17.260;2023-02-04T02:05:40;107363.72;;;19.47;83.60
52947;BME280;45776;40.400;17.260;2023-02-04T02:08:08;107558.13;;;19.86;81.16
52947;BME280;45776;40.400;17.260;2023-02-04T02:10:35;107505.75;;;19.81;79.87
52947;BME280;45776;40.400;17.260;2023-02-04T02:13:02;107622.78;;;20.00;81.48
52947;BME280;45776;40.400;17.260;2023-02-04T02:15:28;107305.69;;;19.37;86.97
52947;BME280;45776;40.400;17.260;2023-02-04T02:17:54;107318.84;;;19.37;85.43
52947;BME280;45776;40.400;17.260;2023-02-04T02:20:22;106847.13;;;18.45;91.92
52947;BME280;45776;40.400;17.260;2023-02-04T02:25:50;107114.94;;;18.88;98.05
52947;BME280;45776;40.400;17.260;2023-02-04T02:28:19;107072.84;;;18.79;100.00
52947;BME280;45776;40.400;17.260;2023-02-04T02:30:46;107167.22;;;18.94;100.00
52947;BME280;45776;40.400;17.260;2023-02-04T02:33:15;107070.56;;;18.73;100.00
52947;BME280;45776;40.400;17.260;2023-02-04T02:35:42;106578.28;;;17.80;100.00
52947;BME280;45776;40.400;17.260;2023-02-04T02:38:10;106740.94;;;18.07;100.00
52947;BME280;45776;40.400;17.260;2023-02-04T02:40:37;106788.97;;;18.15;100.00
52947;BME280;45776;40.400;17.260;2023-02-04T02:43:03;106803.16;;;18.17;100.00
52947;BME280;45776;40.400;17.260;2023-02-04T02:45:30;106718.56;;;18.02;100.00
52947;BME280;45776;40.400;17.260;2023-02-04T02:47:58;107157.91;;;18.80;100.00
52947;BME280;45776;40.400;17.260;2023-02-04T02:50:27;106471.63;;;17.53;100.00
52947;BME280;45776;40.400;17.260;2023-02-04T02:52:53;106987.88;;;18.43;100.00
52947;BME280;45776;40.400;17.260;2023-02-04T02:55:22;106905.88;;;18.28;100.00
52947;BME280;45776;40.400;17.260;2023-02-04T02:57:49;106906.63;;;18.27;100.00
52947;BME280;45776;40.400;17.260;2023-02-04T03:00:17;106960.22;;;18.38;100.00
52947;BME280;45776;40.400;17.260;2023-02-04T03:02:44;107087.06;;;18.64;100.00
52947;BME280;45776;40.400;17.260;2023-02-04T03:05:13;107181.56;;;18.80;100.00
52947;BME280;45776;40.400;17.260;2023-02-04T03:07:39;107150.16;;;18.72;100.00
52947;BME280;45776;40.400;17.260;2023-02-04T03:10:05;107235.97;;;18.89;100.00
52947;BME280;45776;40.400;17.260;2023-02-04T03:12:31;107019.25;;;18.51;100.00
52947;BME280;45776;40.400;17.260;2023-02-04T03:14:56;107113.53;;;18.65;100.00
52947;BME280;45776;40.400;17.260;2023-02-04T03:17:22;106985.41;;;18.45;100.00
52947;BME280;45776;40.400;17.260;2023-02-04T03:19:48;106898.13;;;18.30;100.00
52947;BME280;45776;40.400;17.260;2023-02-04T03:22:14;106920.50;;;18.35;100.00
52947;BME280;45776;40.400;17.260;2023-02-04T03:24:40;107203.34;;;18.87;99.13
52947;BME280;45776;40.400;17.260;2023-02-04T03:27:06;107162.22;;;18.79;100.00
52947;BME280;45776;40.400;17.260;2023-02-04T03:29:31;106973.34;;;18.47;98.18
52947;BME280;45776;40.400;17.260;2023-02-04T03:31:57;107111.50;;;18.71;100.00
52947;BME280;45776;40.400;17.260;2023-02-04T03:34:24;107280.41;;;19.04;98.76
52947;BME280;45776;40.400;17.260;2023-02-04T03:36:49;107238.69;;;18.98;98.58
52947;BME280;45776;40.400;17.260;2023-02-04T03:39:15;107174.13;;;18.84;98.30
52947;BME280;45776;40.400;17.260;2023-02-04T03:41:40;107088.78;;;18.72;98.61
52947;BME280;45776;40.400;17.260;2023-02-04T03:44:06;107099.00;;;18.69;100.00
52947;BME280;45776;40.400;17.260;2023-02-04T03:46:31;107199.94;;;18.88;99.41
52947;BME280;45776;40.400;17.260;2023-02-04T03:48:57;107317.09;;;19.11;98.77
52947;BME280;45776;40.400;17.260;2023-02-04T03:51:22;107046.91;;;18.65;96.98
52947;BME280;45776;40.400;17.260;2023-02-04T03:53:48;107093.44;;;18.74;95.72
52947;BME280;45776;40.400;17.260;2023-02-04T03:56:13;107086.00;;;18.70;97.78
52947;BME280;45776;40.400;17.260;2023-02-04T03:58:39;106982.78;;;18.54;96.38
52947;BME280;45776;40.400;17.260;2023-02-04T04:01:04;107018.31;;;18.59;95.33
52947;BME280;45776;40.400;17.260;2023-02-04T04:03:30;107170.28;;;18.89;95.49
52947;BME280;45776;40.400;17.260;2023-02-04T04:05:55;107105.34;;;18.80;92.88
52947;BME280;45776;40.400;17.260;2023-02-04T04:08:20;107060.97;;;18.74;90.81
52947;BME280;45776;40.400;17.260;2023-02-04T04:10:46;107145.25;;;18.93;90.06
52947;BME280;45776;40.400;17.260;2023-02-04T04:13:11;107095.91;;;18.82;90.67
52947;BME280;45776;40.400;17.260;2023-02-04T04:15:37;107045.97;;;18.73;90.48
52947;BME280;45776;40.400;17.260;2023-02-04T04:18:02;106976.44;;;18.60;90.80
52947;BME280;45776;40.400;17.260;2023-02-04T04:20:29;106912.34;;;18.50;91.15
52947;BME280;45776;40.400;17.260;2023-02-04T04:22:54;106825.06;;;18.35;89.85
52947;BME280;45776;40.400;17.260;2023-02-04T04:25:20;107120.69;;;18.92;86.34
52947;BME280;45776;40.400;17.260;2023-02-04T04:27:45;106882.94;;;18.54;83.83
52947;BME280;45776;40.400;17.260;2023-02-04T04:30:11;106974.56;;;18.77;80.42
52947;BME280;45776;40.400;17.260;2023-02-04T04:32:36;106899.13;;;18.67;79.11
52947;BME280;45776;40.400;17.260;2023-02-04T04:35:02;106824.69;;;18.58;77.19
52947;BME280;45776;40.400;17.260;2023-02-04T04:37:27;106788.88;;;18.50;77.20
52947;BME280;45776;40.400;17.260;2023-02-04T04:39:53;106828.22;;;18.58;76.92
52947;BME280;45776;40.400;17.260;2023-02-04T04:42:18;106725.56;;;18.38;77.00
52947;BME280;45776;40.400;17.260;2023-02-04T04:44:44;106913.03;;;18.75;75.58
52947;BME280;45776;40.400;17.260;2023-02-04T04:47:09;106962.03;;;18.83;75.91
52947;BME280;45776;40.400;17.260;2023-02-04T04:49:35;106645.59;;;18.25;77.06
52947;BME280;45776;40.400;17.260;2023-02-04T04:52:00;106867.00;;;18.70;75.64
52947;BME280;45776;40.400;17.260;2023-02-04T04:54:26;106978.38;;;18.89;76.09
52947;BME280;45776;40.400;17.260;2023-02-04T04:56:51;107044.56;;;19.03;74.81
52947;BME280;45776;40.400;17.260;2023-02-04T04:59:17;107120.50;;;19.17;73.84
52947;BME280;45776;40.400;17.260;2023-02-04T05:01:42;107097.91;;;19.19;72.29
52947;BME280;45776;40.400;17.260;2023-02-04T05:04:08;107139.97;;;19.28;72.32
52947;BME280;45776;40.400;17.260;2023-02-04T05:06:33;107162.25;;;19.32;72.24
52947;BME280;45776;40.400;17.260;2023-02-04T05:08:58;107032.69;;;19.06;73.26
52947;BME280;45776;40.400;17.260;2023-02-04T05:11:24;107140.63;;;19.26;73.80
52947;BME280;45776;40.400;17.260;2023-02-04T05:13:49;107122.38;;;19.18;74.98
52947;BME280;45776;40.400;17.260;2023-02-04T05:16:15;106992.63;;;18.91;75.95
52947;BME280;45776;40.400;17.260;2023-02-04T05:18:42;107189.81;;;19.27;76.32
52947;BME280;45776;40.400;17.260;2023-02-04T05:21:08;106991.88;;;18.92;76.54
52947;BME280;45776;40.400;17.260;2023-02-04T05:23:34;107128.84;;;19.13;78.53
52947;BME280;45776;40.400;17.260;2023-02-04T05:25:59;106909.50;;;18.74;77.89
52947;BME280;45776;40.400;17.260;2023-02-04T05:28:25;106980.56;;;18.85;79.84
52947;BME280;45776;40.400;17.260;2023-02-04T05:30:51;107124.53;;;19.05;80.83
52947;BME280;45776;40.400;17.260;2023-02-04T05:33:16;107104.13;;;19.02;80.55
52947;BME280;45776;40.400;17.260;2023-02-04T05:35:42;107057.59;;;18.92;81.15
52947;BME280;45776;40.400;17.260;2023-02-04T05:38:07;106856.22;;;18.49;83.63
52947;BME280;45776;40.400;17.260;2023-02-04T05:40:33;106931.91;;;18.62;85.76
52947;BME280;45776;40.400;17.260;2023-02-04T05:42:58;106838.47;;;18.47;83.55
52947;BME280;45776;40.400;17.260;2023-02-04T05:45:24;106944.88;;;18.69;82.31
52947;BME280;45776;40.400;17.260;2023-02-04T05:47:49;107189.50;;;19.15;81.60
52947;BME280;45776;40.400;17.260;2023-02-04T05:50:15;106978.25;;;18.79;80.97
52947;BME280;45776;40.400;17.260;2023-02-04T05:52:40;107044.88;;;18.88;82.72
52947;BME280;45776;40.400;17.260;2023-02-04T05:55:07;106823.63;;;18.47;83.04
52947;BME280;45776;40.400;17.260;2023-02-04T05:57:32;106902.69;;;18.59;83.33
52947;BME280;45776;40.400;17.260;2023-02-04T05:59:58;106815.91;;;18.40;87.08
52947;BME280;45776;40.400;17.260;2023-02-04T06:02:23;106760.81;;;18.31;85.64
52947;BME280;45776;40.400;17.260;2023-02-04T06:04:49;106718.66;;;18.21;87.79
52947;BME280;45776;40.400;17.260;2023-02-04T06:07:14;106906.44;;;18.52;89.48
52947;BME280;45776;40.400;17.260;2023-02-04T06:09:40;106979.66;;;18.67;88.67
52947;BME280;45776;40.400;17.260;2023-02-04T06:12:05;106985.06;;;18.68;89.06
52947;BME280;45776;40.400;17.260;2023-02-04T06:14:31;107108.13;;;18.90;87.51
52947;BME280;45776;40.400;17.260;2023-02-04T06:16:56;107078.75;;;18.85;86.89
52947;BME280;45776;40.400;17.260;2023-02-04T06:19:24;106705.09;;;18.16;89.16
52947;BME280;45776;40.400;17.260;2023-02-04T06:21:49;107138.88;;;18.91;89.28
52947;BME280;45776;40.400;17.260;2023-02-04T06:24:14;107159.63;;;18.97;88.00
52947;BME280;45776;40.400;17.260;2023-02-04T06:26:40;107165.84;;;18.97;89.22
52947;BME280;45776;40.400;17.260;2023-02-04T06:29:05;107090.66;;;18.82;90.49
52947;BME280;45776;40.400;17.260;2023-02-04T06:31:31;107247.03;;;19.12;88.21
52947;BME280;45776;40.400;17.260;2023-02-04T06:33:56;107157.94;;;18.97;88.39
52947;BME280;45776;40.400;17.260;2023-02-04T06:36:22;107220.59;;;19.10;86.94
52947;BME280;45776;40.400;17.260;2023-02-04T06:38:47;107295.78;;;19.26;86.73
52947;BME280;45776;40.400;17.260;2023-02-04T06:41:13;107472.72;;;19.58;85.33
52947;BME280;45776;40.400;17.260;2023-02-04T06:43:38;107431.22;;;19.55;82.53
52947;BME280;45776;40.400;17.260;2023-02-04T06:46:04;107486.50;;;19.64;83.96
52947;BME280;45776;40.400;17.260;2023-02-04T06:48:29;107502.16;;;19.71;81.82
52947;BME280;45776;40.400;17.260;2023-02-04T06:50:55;107268.38;;;19.32;80.93
52947;BME280;45776;40.400;17.260;2023-02-04T06:53:20;107548.47;;;19.78;81.55
52947;BME280;45776;40.400;17.260;2023-02-04T06:55:46;107561.97;;;19.81;81.69
52947;BME280;45776;40.400;17.260;2023-02-04T06:58:11;107652.53;;;20.08;77.55
52947;BME280;45776;40.400;17.260;2023-02-04T07:00:37;107402.75;;;19.60;79.17
52947;BME280;45776;40.400;17.260;2023-02-04T07:03:02;107294.72;;;19.41;79.26
52947;BME280;45776;40.400;17.260;2023-02-04T07:05:28;107095.16;;;19.00;80.22
52947;BME280;45776;40.400;17.260;2023-02-04T07:07:53;107129.78;;;19.05;80.54
52947;BME280;45776;40.400;17.260;2023-02-04T07:10:19;106964.06;;;18.77;80.76
52947;BME280;45776;40.400;17.260;2023-02-04T07:12:45;106952.91;;;18.71;82.54
52947;BME280;45776;40.400;17.260;2023-02-04T07:15:11;106940.44;;;18.59;87.05
52947;BME280;45776;40.400;17.260;2023-02-04T07:17:37;106948.31;;;18.59;87.34
52947;BME280;45776;40.400;17.260;2023-02-04T07:20:02;107023.41;;;18.75;85.29
52947;BME280;45776;40.400;17.260;2023-02-04T07:22:28;107048.28;;;18.79;86.37
52947;BME280;45776;40.400;17.260;2023-02-04T07:24:53;106820.25;;;18.39;84.49
52947;BME280;45776;40.400;17.260;2023-02-04T07:27:19;106623.31;;;18.03;84.43
52947;BME280;45776;40.400;17.260;2023-02-04T07:29:44;106594.78;;;17.97;84.30
52947;BME280;45776;40.400;17.260;2023-02-04T07:32:09;106942.09;;;18.59;85.78
52947;BME280;45776;40.400;17.260;2023-02-04T07:34:35;106708.03;;;18.19;83.42
52947;BME280;45776;40.400;17.260;2023-02-04T07:37:00;106578.13;;;17.96;83.81
52947;BME280;45776;40.400;17.260;2023-02-04T07:39:26;106650.91;;;18.08;83.53
52947;BME280;45776;40.400;17.260;2023-02-04T07:41:51;106830.13;;;18.42;83.41
52947;BME280;45776;40.400;17.260;2023-02-04T07:44:17;106723.16;;;18.22;82.97
52947;BME280;45776;40.400;17.260;2023-02-04T07:46:42;106701.69;;;18.17;82.98
52947;BME280;45776;40.400;17.260;2023-02-04T07:49:08;107021.53;;;18.74;84.40
52947;BME280;45776;40.400;17.260;2023-02-04T07:51:33;106562.22;;;17.86;87.58
52947;BME280;45776;40.400;17.260;2023-02-04T07:53:59;106960.69;;;18.60;85.78
52947;BME280;45776;40.400;17.260;2023-02-04T07:56:25;107234.97;;;19.14;84.23
52947;BME280;45776;40.400;17.260;2023-02-04T07:58:50;107166.44;;;19.03;81.27
52947;BME280;45776;40.400;17.260;2023-02-04T08:01:16;106675.31;;;18.16;81.21
52947;BME280;45776;40.400;17.260;2023-02-04T08:03:41;106844.81;;;18.49;81.37
52947;BME280;45776;40.400;17.260;2023-02-04T08:06:07;107068.84;;;18.91;78.52
52947;BME280;45776;40.400;17.260;2023-02-04T08:08:33;106761.91;;;18.33;79.46
52947;BME280;45776;40.400;17.260;2023-02-04T08:10:58;106995.41;;;18.75;79.46
52947;BME280;45776;40.400;17.260;2023-02-04T08:13:24;106842.31;;;18.50;78.68
52947;BME280;45776;40.400;17.260;2023-02-04T08:15:50;106981.69;;;18.78;77.12
52947;BME280;45776;40.400;17.260;2023-02-04T08:18:15;107304.00;;;19.37;77.16
52947;BME280;45776;40.400;17.260;2023-02-04T08:20:41;107501.09;;;19.78;75.57
52947;BME280;45776;40.400;17.260;2023-02-04T08:23:07;107319.34;;;19.50;74.48
52947;BME280;45776;40.400;17.260;2023-02-04T08:25:32;107102.28;;;19.10;74.30
52947;BME280;45776;40.400;17.260;2023-02-04T08:27:58;107132.25;;;19.12;75.38
52947;BME280;45776;40.400;17.260;2023-02-04T08:30:23;107229.25;;;19.27;76.77
52947;BME280;45776;40.400;17.260;2023-02-04T08:32:49;107037.66;;;18.95;75.29
52947;BME280;45776;40.400;17.260;2023-02-04T08:35:15;107289.44;;;19.41;74.18
52947;BME280;45776;40.400;17.260;2023-02-04T08:37:40;107491.66;;;19.80;73.38
52947;BME280;45776;40.400;17.260;2023-02-04T08:40:06;106980.25;;;18.90;73.74
52947;BME280;45776;40.400;17.260;2023-02-04T08:42:32;107210.38;;;19.31;74.98
52947;BME280;45776;40.400;17.260;2023-02-04T08:44:59;107351.19;;;19.53;75.56
52947;BME280;45776;40.400;17.260;2023-02-04T08:47:25;107309.25;;;19.46;75.36
52947;BME280;45776;40.400;17.260;2023-02-04T08:49:50;107050.44;;;19.00;76.63
52947;BME280;45776;40.400;17.260;2023-02-04T08:52:15;107271.47;;;19.37;76.75
52947;BME280;45776;40.400;17.260;2023-02-04T08:54:41;107635.19;;;20.10;74.70
52947;BME280;45776;40.400;17.260;2023-02-04T08:57:06;107661.38;;;20.17;73.50
52947;BME280;45776;40.400;17.260;2023-02-04T08:59:32;107310.50;;;19.50;75.80
52947;BME280;45776;40.400;17.260;2023-02-04T09:01:57;107011.19;;;18.93;76.55
52947;BME280;45776;40.400;17.260;2023-02-04T09:04:23;107163.34;;;19.16;78.61
52947;BME280;45776;40.400;17.260;2023-02-04T09:06:49;107064.81;;;19.04;74.85
52947;BME280;45776;40.400;17.260;2023-02-04T09:09:15;107156.41;;;19.26;73.13
52947;BME280;45776;40.400;17.260;2023-02-04T09:11:41;107043.03;;;19.05;73.89
52947;BME280;45776;40.400;17.260;2023-02-04T09:14:07;107508.13;;;19.95;71.96
52947;BME280;45776;40.400;17.260;2023-02-04T09:16:32;107579.44;;;20.14;70.25
52947;BME280;45776;40.400;17.260;2023-02-04T09:18:58;107307.53;;;19.64;69.26
52947;BME280;45776;40.400;17.260;2023-02-04T09:21:24;107640.81;;;20.31;67.45
52947;BME280;45776;40.400;17.260;2023-02-04T09:23:50;107184.81;;;19.47;67.29
52947;BME280;45776;40.400;17.260;2023-02-04T09:26:16;107275.19;;;19.65;66.97
52947;BME280;45776;40.400;17.260;2023-02-04T09:28:41;107410.41;;;19.92;67.09
52947;BME280;45776;40.400;17.260;2023-02-04T09:31:07;107719.13;;;20.49;67.24
52947;BME280;45776;40.400;17.260;2023-02-04T09:33:33;107492.63;;;20.07;66.51
52947;BME280;45776;40.400;17.260;2023-02-04T09:35:59;107762.25;;;20.59;66.12
52947;BME280;45776;40.400;17.260;2023-02-04T09:38:24;107542.09;;;20.18;66.75
52947;BME280;45776;40.400;17.260;2023-02-04T09:40:53;107473.44;;;20.08;66.84
52947;BME280;45776;40.400;17.260;2023-02-04T09:43:25;107464.47;;;20.06;66.88
52947;BME280;45776;40.400;17.260;2023-02-04T09:45:53;107727.22;;;20.60;65.00
52947;BME280;45776;40.400;17.260;2023-02-04T09:48:20;107831.19;;;20.79;64.88
52947;BME280;45776;40.400;17.260;2023-02-04T09:50:47;107732.63;;;20.61;66.13
52947;BME280;45776;40.400;17.260;2023-02-04T09:53:16;107770.09;;;20.75;64.03
52947;BME280;45776;40.400;17.260;2023-02-04T09:55:44;108163.13;;;21.51;63.20
52947;BME280;45776;40.400;17.260;2023-02-04T09:58:16;107864.59;;;20.96;63.42
52947;BME280;45776;40.400;17.260;2023-02-04T10:00:43;107832.94;;;20.96;61.73
52947;BME280;45776;40.400;17.260;2023-02-04T10:03:17;107833.88;;;20.97;62.02
52947;BME280;45776;40.400;17.260;2023-02-04T10:05:45;107753.94;;;20.80;63.02
52947;BME280;45776;40.400;17.260;2023-02-04T10:08:16;107808.72;;;20.92;63.04
52947;BME280;45776;40.400;17.260;2023-02-04T10:10:43;107791.38;;;20.94;61.80
52947;BME280;45776;40.400;17.260;2023-02-04T10:13:29;107980.44;;;21.28;62.02
52947;BME280;45776;40.400;17.260;2023-02-04T10:15:56;108101.84;;;21.62;59.36
52947;BME280;45776;40.400;17.260;2023-02-04T10:18:31;107914.91;;;21.24;59.72
52947;BME280;45776;40.400;17.260;2023-02-04T10:21:25;107646.72;;;20.72;60.33
52947;BME280;45776;40.400;17.260;2023-02-04T10:23:57;107302.75;;;20.04;61.14
52947;BME280;45776;40.400;17.260;2023-02-04T10:26:26;107243.75;;;19.93;61.47
52947;BME280;45776;40.400;17.260;2023-02-04T10:34:20;107855.16;;;20.99;64.02
52947;BME280;45776;40.400;17.260;2023-02-04T10:36:49;107910.88;;;21.10;63.53
52947;BME280;45776;40.400;17.260;2023-02-04T10:39:22;108239.66;;;21.75;63.41
52947;BME280;45776;40.400;17.260;2023-02-04T10:41:50;108257.44;;;21.85;61.41
52947;BME280;45776;40.400;17.260;2023-02-04T10:44:18;108465.53;;;22.37;59.69
52947;BME280;45776;40.400;17.260;2023-02-04T10:46:45;108322.84;;;22.13;59.42
52947;BME280;45776;40.400;17.260;2023-02-04T10:49:17;108198.72;;;21.88;59.88
52947;BME280;45776;40.400;17.260;2023-02-04T10:51:43;108145.69;;;21.78;60.18
52947;BME280;45776;40.400;17.260;2023-02-04T10:54:11;108529.91;;;22.54;59.23
52947;BME280;45776;40.400;17.260;2023-02-04T10:57:44;108111.97;;;21.75;60.20
52947;BME280;45776;40.400;17.260;2023-02-04T10:59:53;108441.56;;;22.36;60.00
52947;BME280;45776;40.400;17.260;2023-02-04T11:02:35;108330.91;;;22.14;61.18
52947;BME280;45776;40.400;17.260;2023-02-04T11:05:02;108728.50;;;22.89;61.72
52947;BME280;45776;40.400;17.260;2023-02-04T11:07:30;108181.47;;;21.83;62.97
52947;BME280;45776;40.400;17.260;2023-02-04T11:09:56;107978.91;;;21.39;64.79
52947;BME280;45776;40.400;17.260;2023-02-04T11:12:34;107513.09;;;20.45;66.22
52947;BME280;45776;40.400;17.260;2023-02-04T11:15:00;107731.63;;;20.86;66.18
52947;BME280;45776;40.400;17.260;2023-02-04T11:17:33;108000.81;;;21.38;64.48
52947;BME280;45776;40.400;17.260;2023-02-04T11:19:59;108482.19;;;22.36;62.77
52947;BME280;45776;40.400;17.260;2023-02-04T11:22:45;108168.25;;;21.83;61.57
52947;BME280;45776;40.400;17.260;2023-02-04T11:25:34;107797.44;;;21.10;63.24
52947;BME280;45776;40.400;17.260;2023-02-04T11:28:13;108409.94;;;22.20;64.38
52947;BME280;45776;40.400;17.260;2023-02-04T11:30:39;108406.41;;;22.28;62.12
52947;BME280;45776;40.400;17.260;2023-02-04T11:33:05;108424.00;;;22.36;61.88
52947;BME280;45776;40.400;17.260;2023-02-04T11:35:59;108598.09;;;22.65;62.27
52947;BME280;45776;40.400;17.260;2023-02-04T11:38:26;108195.63;;;21.92;62.46
52947;BME280;45776;40.400;17.260;2023-02-04T11:40:56;108060.22;;;21.68;62.69
52947;BME280;45776;40.400;17.260;2023-02-04T11:43:22;107933.91;;;21.38;63.40
52947;BME280;45776;40.400;17.260;2023-02-04T11:46:00;107736.13;;;20.95;66.02
52947;BME280;45776;40.400;17.260;2023-02-04T11:48:26;107533.69;;;20.58;65.65
52947;BME280;45776;40.400;17.260;2023-02-04T11:51:00;107699.03;;;20.85;65.89
52947;BME280;45776;40.400;17.260;2023-02-04T11:53:31;107726.84;;;20.90;66.63
52947;BME280;45776;40.400;17.260;2023-02-04T11:55:57;107832.19;;;21.06;66.91
52947;BME280;45776;40.400;17.260;2023-02-04T11:58:23;107357.25;;;20.14;69.69
52947;BME280;45776;40.400;17.260;2023-02-04T12:00:51;107148.88;;;19.74;71.21
52947;BME280;45776;40.400;17.260;2023-02-04T12:03:44;108129.88;;;21.53;70.03
52947;BME280;45776;40.400;17.260;2023-02-04T12:06:20;107630.91;;;20.63;70.16
52947;BME280;45776;40.400;17.260;2023-02-04T12:08:46;107366.84;;;20.13;70.02
52947;BME280;45776;40.400;17.260;2023-02-04T12:11:26;107312.03;;;20.00;73.01
52947;BME280;45776;40.400;17.260;2023-02-04T12:13:55;107334.78;;;20.00;74.46
52947;BME280;45776;40.400;17.260;2023-02-04T12:16:21;107761.72;;;20.79;72.19
52947;BME280;45776;40.400;17.260;2023-02-04T12:18:48;108427.44;;;22.11;68.68
52947;BME280;45776;40.400;17.260;2023-02-04T12:21:13;108512.78;;;22.34;68.43
52947;BME280;45776;40.400;17.260;2023-02-04T12:23:39;108367.13;;;22.06;68.22
52947;BME280;45776;40.400;17.260;2023-02-04T12:26:07;108018.03;;;21.43;68.34
52947;BME280;45776;40.400;17.260;2023-02-04T12:28:32;108387.81;;;22.11;67.28
52947;BME280;45776;40.400;17.260;2023-02-04T12:30:58;108346.00;;;22.15;64.23
52947;BME280;45776;40.400;17.260;2023-02-04T12:33:24;108401.25;;;22.30;62.97
52947;BME280;45776;40.400;17.260;2023-02-04T12:35:50;108153.00;;;21.80;64.53
52947;BME280;45776;40.400;17.260;2023-02-04T12:38:15;107674.09;;;20.90;65.48
52947;BME280;45776;40.400;17.260;2023-02-04T12:40:41;107666.78;;;20.79;68.27
52947;BME280;45776;40.400;17.260;2023-02-04T12:43:06;107543.63;;;20.52;69.13
52947;BME280;45776;40.400;17.260;2023-02-04T12:45:32;107287.06;;;20.06;70.24